createdAt,value
2023-04-10T00:01:08.603Z,32.90
2023-04-10T00:06:09.328Z,31.40
2023-04-10T00:11:10.037Z,30.60
2023-04-10T00:16:10.811Z,30.90
2023-04-10T00:21:11.476Z,29.60
2023-04-10T00:26:12.193Z,31.70
2023-04-10T00:31:12.920Z,30.90
2023-04-10T00:36:13.674Z,29.20
2023-04-10T00:41:14.414Z,29.10
2023-04-10T00:46:15.176Z,28.10
2023-04-10T00:51:15.934Z,28.50
2023-04-10T00:56:16.657Z,26.90
2023-04-10T01:01:17.452Z,26.40
2023-04-10T01:06:18.114Z,26.90
2023-04-10T01:11:18.818Z,26.50
2023-04-10T01:16:19.557Z,22.80
2023-04-10T01:21:20.253Z,26.40
2023-04-10T01:26:20.945Z,26.70
2023-04-10T01:31:21.803Z,25.60
2023-04-10T01:36:22.154Z,24.70
2023-04-10T01:41:22.828Z,22.90
2023-04-10T01:46:23.617Z,22.70
2023-04-10T01:51:24.301Z,22.80
2023-04-10T01:56:25.027Z,24.50
2023-04-10T02:01:29.821Z,23.70
2023-04-10T02:06:26.532Z,23.10
2023-04-10T02:11:27.258Z,23.50
2023-04-10T02:16:28.022Z,24.20
2023-04-10T02:21:28.748Z,22.50
2023-04-10T02:26:29.459Z,25.30
2023-04-10T02:31:30.232Z,25.10
2023-04-10T02:36:30.902Z,25.50
2023-04-10T02:41:31.626Z,25.40
2023-04-10T02:46:32.374Z,25.90
2023-04-10T02:51:33.077Z,24.00
2023-04-10T02:56:33.761Z,24.40
2023-04-10T03:01:34.534Z,24.70
2023-04-10T03:06:35.244Z,23.80
2023-04-10T03:11:35.979Z,24.50
2023-04-10T03:16:36.853Z,24.20
2023-04-10T03:21:37.138Z,24.50
2023-04-10T03:26:37.856Z,25.10
2023-04-10T03:31:38.648Z,24.90
2023-04-10T03:36:39.346Z,26.10
2023-04-10T03:41:40.053Z,26.30
2023-04-10T03:46:40.841Z,25.50
2023-04-10T03:51:41.496Z,25.70
2023-04-10T03:56:42.162Z,25.60
2023-04-10T04:01:42.914Z,26.10
2023-04-10T04:06:43.601Z,25.50
2023-04-10T04:11:51.274Z,25.20
2023-04-10T04:16:44.920Z,25.10
2023-04-10T04:21:45.569Z,23.90
2023-04-10T04:26:46.219Z,23.80
2023-04-10T04:31:46.986Z,24.10
2023-04-10T04:36:47.646Z,23.40
2023-04-10T04:41:48.286Z,23.30
2023-04-10T04:46:48.987Z,23.20
2023-04-10T04:51:49.622Z,22.10
2023-04-10T04:56:50.275Z,23.00
2023-04-10T05:01:51.057Z,22.10
2023-04-10T05:06:51.830Z,21.90
2023-04-10T05:11:52.460Z,22.20
2023-04-10T05:16:53.125Z,22.00
2023-04-10T05:21:53.781Z,21.60
2023-04-10T05:26:54.468Z,21.40
2023-04-10T05:31:55.104Z,21.60
2023-04-10T05:36:58.821Z,21.10
2023-04-10T05:41:56.717Z,20.30
2023-04-10T05:46:57.340Z,20.60
2023-04-10T05:51:58.047Z,19.40
2023-04-10T05:56:58.654Z,18.90
2023-04-10T06:01:59.403Z,19.40
2023-04-10T06:07:00.023Z,19.00
2023-04-10T06:12:00.680Z,20.10
2023-04-10T06:17:01.413Z,19.30
2023-04-10T06:22:02.003Z,18.90
2023-04-10T06:27:02.686Z,19.20
2023-04-10T06:32:03.328Z,19.60
2023-04-10T06:37:04.014Z,19.30
2023-04-10T06:42:04.672Z,20.30
2023-04-10T06:47:05.374Z,21.30
2023-04-10T06:52:06.012Z,21.80
2023-04-10T06:57:06.653Z,21.00
2023-04-10T07:02:07.350Z,21.70
2023-04-10T07:07:08.058Z,23.10
2023-04-10T07:12:08.732Z,23.60
2023-04-10T07:17:09.365Z,25.00
2023-04-10T07:22:10.015Z,26.30
2023-04-10T07:27:10.836Z,34.40
2023-04-10T07:32:11.682Z,32.50
2023-04-10T07:37:12.349Z,34.00
2023-04-10T07:42:13.018Z,31.00
2023-04-10T07:47:13.675Z,33.30
2023-04-10T07:52:14.313Z,32.40
2023-04-10T07:57:14.958Z,30.90
2023-04-10T08:02:15.742Z,31.10
2023-04-10T08:07:16.383Z,29.70
2023-04-10T08:12:17.024Z,29.70
2023-04-10T08:17:17.727Z,30.10
2023-04-10T08:22:18.362Z,29.50
2023-04-10T08:27:19.050Z,29.80
2023-04-10T08:32:19.694Z,30.50
2023-04-10T08:37:20.374Z,28.90
2023-04-10T08:42:21.009Z,29.80
2023-04-10T08:47:21.744Z,30.30
2023-04-10T08:52:22.395Z,29.40
2023-04-10T08:57:23.057Z,29.80
2023-04-10T09:02:23.922Z,30.10
2023-04-10T09:07:24.392Z,30.00
2023-04-10T09:12:25.063Z,28.60
2023-04-10T09:17:25.728Z,26.60
2023-04-10T09:22:26.351Z,27.60
2023-04-10T09:27:27.007Z,25.00
2023-04-10T09:32:27.704Z,22.80
2023-04-10T09:37:28.371Z,21.40
2023-04-10T09:42:29.132Z,20.10
2023-04-10T09:47:29.920Z,18.40
2023-04-10T09:52:30.574Z,20.10
2023-04-10T09:57:31.270Z,18.00
2023-04-10T10:02:32.310Z,18.00
2023-04-10T10:07:32.515Z,19.20
2023-04-10T10:12:40.182Z,15.90
2023-04-10T10:17:33.906Z,15.00
2023-04-10T10:22:34.530Z,16.30
2023-04-10T10:27:35.168Z,15.90
2023-04-10T10:32:35.901Z,16.60
2023-04-10T10:37:36.530Z,16.30
2023-04-10T10:42:37.219Z,15.70
2023-04-10T10:47:37.876Z,14.30
2023-04-10T10:52:38.501Z,14.30
2023-04-10T10:57:39.156Z,14.50
2023-04-10T11:02:40.008Z,13.90
2023-04-10T11:07:40.694Z,13.10
2023-04-10T11:12:41.343Z,12.60
2023-04-10T11:17:42.068Z,10.10
2023-04-10T11:22:42.738Z,9.70
2023-04-10T11:27:43.374Z,9.00
2023-04-10T11:32:44.021Z,10.10
2023-04-10T11:37:44.659Z,9.60
2023-04-10T11:42:45.353Z,10.10
2023-04-10T11:47:45.965Z,9.90
2023-04-10T11:52:46.597Z,10.10
2023-04-10T11:57:47.252Z,9.00
2023-04-10T12:02:48.142Z,8.70
2023-04-10T12:07:48.799Z,8.00
2023-04-10T12:12:49.448Z,8.20
2023-04-10T12:17:50.274Z,7.70
2023-04-10T12:22:50.888Z,8.50
2023-04-10T12:27:51.565Z,7.50
2023-04-10T12:32:52.284Z,8.20
2023-04-10T12:37:52.954Z,7.30
2023-04-10T12:42:53.582Z,7.10
2023-04-10T12:47:54.272Z,6.80
2023-04-10T12:52:54.961Z,7.50
2023-04-10T12:57:55.594Z,7.90
2023-04-10T13:02:56.473Z,7.30
2023-04-10T13:07:56.722Z,6.80
2023-04-10T13:12:57.343Z,7.40
2023-04-10T13:17:58.040Z,7.00
2023-04-10T13:22:58.663Z,8.40
2023-04-10T13:27:59.337Z,7.70
2023-04-10T13:33:00.070Z,7.80
2023-04-10T13:38:00.809Z,7.60
2023-04-10T13:43:01.438Z,7.70
2023-04-10T13:48:02.130Z,8.60
2023-04-10T13:53:02.749Z,8.20
2023-04-10T13:58:03.386Z,7.70
2023-04-10T14:03:04.215Z,7.30
2023-04-10T14:08:04.953Z,7.60
2023-04-10T14:13:05.611Z,7.70
2023-04-10T14:18:06.306Z,7.00
2023-04-10T14:23:06.975Z,6.60
2023-04-10T14:28:07.610Z,6.80
2023-04-10T14:33:08.276Z,6.90
2023-04-10T14:38:08.923Z,7.00
2023-04-10T14:43:09.604Z,8.00
2023-04-10T14:48:10.276Z,8.20
2023-04-10T14:53:10.976Z,9.20
2023-04-10T14:58:11.619Z,9.10
2023-04-10T15:03:12.343Z,9.20
2023-04-10T15:08:12.987Z,8.20
2023-04-10T15:13:13.630Z,8.70
2023-04-10T15:18:14.273Z,8.90
2023-04-10T15:23:14.973Z,8.60
2023-04-10T15:28:15.600Z,8.90
2023-04-10T15:33:16.263Z,9.40
2023-04-10T15:38:16.896Z,8.20
2023-04-10T15:43:17.596Z,8.40
2023-04-10T15:48:18.201Z,8.20
2023-04-10T15:53:18.860Z,8.50
2023-04-10T15:58:19.526Z,8.10
2023-04-10T16:03:20.308Z,8.00
2023-04-10T16:08:20.981Z,7.80
2023-04-10T16:13:28.632Z,7.60
2023-04-10T16:18:22.265Z,7.60
2023-04-10T16:23:22.935Z,7.90
2023-04-10T16:28:23.566Z,7.70
2023-04-10T16:33:24.227Z,7.40
2023-04-10T16:38:24.877Z,8.10
2023-04-10T16:43:25.555Z,7.60
2023-04-10T16:48:26.203Z,8.00
2023-04-10T16:53:26.840Z,7.80
2023-04-10T16:58:27.492Z,8.10
2023-04-10T17:03:28.232Z,8.80
2023-04-10T17:08:28.858Z,8.60
2023-04-10T17:13:29.508Z,8.00
2023-04-10T17:18:30.182Z,8.40
2023-04-10T17:23:30.820Z,8.50
2023-04-10T17:28:31.460Z,8.10
2023-04-10T17:33:32.127Z,8.20
2023-04-10T17:38:32.771Z,8.20
2023-04-10T17:43:33.422Z,7.80
2023-04-10T17:48:34.126Z,8.10
2023-04-10T17:53:34.788Z,8.00
2023-04-10T17:58:35.464Z,7.70
2023-04-10T18:03:36.197Z,8.10
2023-04-10T18:08:36.839Z,8.00
2023-04-10T18:13:37.498Z,8.50
2023-04-10T18:18:38.174Z,8.20
2023-04-10T18:23:38.810Z,8.70
2023-04-10T18:28:39.454Z,8.60
2023-04-10T18:33:40.205Z,8.70
2023-04-10T18:38:40.959Z,9.10
2023-04-10T18:43:42.387Z,9.10
2023-04-10T18:48:42.103Z,10.00
2023-04-10T18:53:42.824Z,9.20
2023-04-10T18:58:43.506Z,9.70
2023-04-10T19:03:44.375Z,8.70
2023-04-10T19:08:44.788Z,9.10
2023-04-10T19:13:45.556Z,9.10
2023-04-10T19:18:46.221Z,9.50
2023-04-10T19:23:46.922Z,8.20
2023-04-10T19:28:47.651Z,8.40
2023-04-10T19:33:48.334Z,8.20
2023-04-10T19:38:49.030Z,8.60
2023-04-10T19:43:49.763Z,8.50
2023-04-10T19:48:50.458Z,7.90
2023-04-10T19:53:51.147Z,8.10
2023-04-10T19:58:51.858Z,8.10
2023-04-10T20:03:52.641Z,7.70
2023-04-10T20:08:53.961Z,8.00
2023-04-10T20:13:54.372Z,7.20
2023-04-10T20:18:55.370Z,7.30
2023-04-10T20:23:55.755Z,7.40
2023-04-10T20:28:56.555Z,7.60
2023-04-10T20:33:57.269Z,7.30
2023-04-10T20:38:58.003Z,6.90
2023-04-10T20:43:58.692Z,7.10
2023-04-10T20:48:59.410Z,6.90
2023-04-10T20:54:00.141Z,6.60
2023-04-10T20:59:00.850Z,7.00
2023-04-10T21:04:01.625Z,7.00
2023-04-10T21:09:02.411Z,7.50
2023-04-10T21:14:03.120Z,7.00
2023-04-10T21:19:03.916Z,7.50
2023-04-10T21:24:04.591Z,7.10
2023-04-10T21:29:05.296Z,7.20
2023-04-10T21:34:06.029Z,7.30
2023-04-10T21:39:06.710Z,7.10
2023-04-10T21:44:07.421Z,6.90
2023-04-10T21:49:08.139Z,7.20
2023-04-10T21:54:08.817Z,7.40
2023-04-10T21:59:09.517Z,7.60
2023-04-10T22:04:10.375Z,7.80
2023-04-10T22:09:10.707Z,7.50
2023-04-10T22:14:20.770Z,7.80
2023-04-10T22:19:12.071Z,7.10
2023-04-10T22:24:12.796Z,7.50
2023-04-10T22:29:13.478Z,7.60
2023-04-10T22:34:14.206Z,7.80
2023-04-10T22:39:14.888Z,7.60
2023-04-10T22:44:15.607Z,7.70
2023-04-10T22:49:16.289Z,7.30
2023-04-10T22:54:16.993Z,7.60
2023-04-10T22:59:17.727Z,7.70
2023-04-10T23:04:18.529Z,8.10
2023-04-10T23:09:19.214Z,8.10
2023-04-10T23:14:19.926Z,7.80
2023-04-10T23:19:20.644Z,7.40
2023-04-10T23:24:21.327Z,7.70
2023-04-10T23:29:22.035Z,8.20
2023-04-10T23:34:22.760Z,7.80
2023-04-10T23:39:23.431Z,7.80
2023-04-10T23:44:24.135Z,7.80
2023-04-10T23:49:24.867Z,7.40
2023-04-10T23:54:25.542Z,7.70
2023-04-10T23:59:26.244Z,7.70
